createdAt,value
2023-01-03T00:00:09.748Z,1017.88
2023-01-03T00:01:09.673Z,1017.85
2023-01-03T00:02:09.688Z,1017.87
2023-01-03T00:03:09.658Z,1017.87
2023-01-03T00:04:09.769Z,1017.86
2023-01-03T00:05:09.650Z,1017.85
2023-01-03T00:06:09.617Z,1017.87
2023-01-03T00:07:09.729Z,1017.83
2023-01-03T00:08:09.595Z,1017.86
2023-01-03T00:09:09.588Z,1017.89
2023-01-03T00:10:09.615Z,1017.85
2023-01-03T00:11:09.562Z,1017.84
2023-01-03T00:12:09.556Z,1017.91
2023-01-03T00:13:09.539Z,1017.93
2023-01-03T00:14:09.528Z,1017.96
2023-01-03T00:15:09.520Z,1017.99
2023-01-03T00:16:09.511Z,1018.06
2023-01-03T00:17:09.648Z,1018.02
2023-01-03T00:18:09.484Z,1018.02
2023-01-03T00:19:09.475Z,1018.05
2023-01-03T00:20:09.474Z,1018.06
2023-01-03T00:21:09.455Z,1018.06
2023-01-03T00:22:09.956Z,1018.02
2023-01-03T00:23:09.444Z,1018.04
2023-01-03T00:24:09.415Z,1018.08
2023-01-03T00:25:09.405Z,1018.09
2023-01-03T00:26:09.395Z,1018.16
2023-01-03T00:27:09.381Z,1018.12
2023-01-03T00:28:09.418Z,1018.17
2023-01-03T00:29:09.368Z,1018.17
2023-01-03T00:30:09.376Z,1018.24
2023-01-03T00:31:09.396Z,1018.20
2023-01-03T00:32:09.328Z,1018.23
2023-01-03T00:33:09.315Z,1018.26
2023-01-03T00:34:09.312Z,1018.32
2023-01-03T00:35:09.292Z,1018.37
2023-01-03T00:36:09.290Z,1018.43
2023-01-03T00:37:09.274Z,1018.47
2023-01-03T00:38:09.258Z,1018.42
2023-01-03T00:39:09.265Z,1018.46
2023-01-03T00:40:09.259Z,1018.47
2023-01-03T00:41:09.225Z,1018.44
2023-01-03T00:42:09.216Z,1018.48
2023-01-03T00:43:09.203Z,1018.44
2023-01-03T00:44:09.208Z,1018.45
2023-01-03T00:45:10.697Z,1018.42
2023-01-03T00:46:09.222Z,1018.42
2023-01-03T00:47:09.160Z,1018.47
2023-01-03T00:48:09.147Z,1018.45
2023-01-03T00:49:09.135Z,1018.47
2023-01-03T00:50:09.123Z,1018.49
2023-01-03T00:51:09.113Z,1018.47
2023-01-03T00:52:09.108Z,1018.51
2023-01-03T00:53:09.100Z,1018.47
2023-01-03T00:54:09.095Z,1018.48
2023-01-03T00:55:09.085Z,1018.50
2023-01-03T00:56:09.056Z,1018.54
2023-01-03T00:57:09.046Z,1018.57
2023-01-03T00:58:09.042Z,1018.56
2023-01-03T00:59:09.029Z,1018.53
2023-01-03T01:00:09.013Z,1018.58
2023-01-03T01:01:09.112Z,1018.59
2023-01-03T01:02:09.309Z,1018.58
2023-01-03T01:03:09.166Z,1018.61
2023-01-03T01:04:08.997Z,1018.59
2023-01-03T01:05:08.969Z,1018.65
2023-01-03T01:06:08.954Z,1018.64
2023-01-03T01:07:08.936Z,1018.68
2023-01-03T01:08:08.921Z,1018.66
2023-01-03T01:09:08.911Z,1018.67
2023-01-03T01:10:08.909Z,1018.61
2023-01-03T01:11:09.036Z,1018.64
2023-01-03T01:12:08.881Z,1018.63
2023-01-03T01:13:08.866Z,1018.62
2023-01-03T01:14:08.855Z,1018.65
2023-01-03T01:15:08.852Z,1018.72
2023-01-03T01:16:08.931Z,1018.76
2023-01-03T01:17:08.822Z,1018.78
2023-01-03T01:18:08.810Z,1018.86
2023-01-03T01:19:08.799Z,1018.85
2023-01-03T01:20:08.791Z,1018.85
2023-01-03T01:21:08.779Z,1018.89
2023-01-03T01:22:08.797Z,1018.91
2023-01-03T01:23:08.753Z,1018.97
2023-01-03T01:24:11.579Z,1018.98
2023-01-03T01:25:09.731Z,1018.97
2023-01-03T01:26:08.723Z,1019.01
2023-01-03T01:27:08.736Z,1019.05
2023-01-03T01:28:08.734Z,1019.12
2023-01-03T01:29:08.686Z,1019.10
2023-01-03T01:30:08.678Z,1019.16
2023-01-03T01:31:08.716Z,1019.17
2023-01-03T01:32:08.652Z,1019.23
2023-01-03T01:33:08.645Z,1019.17
2023-01-03T01:34:08.644Z,1019.19
2023-01-03T01:35:08.618Z,1019.21
2023-01-03T01:36:08.610Z,1019.19
2023-01-03T01:37:08.612Z,1019.24
2023-01-03T01:38:08.585Z,1019.24
2023-01-03T01:39:08.582Z,1019.26
2023-01-03T01:40:08.600Z,1019.29
2023-01-03T01:41:08.553Z,1019.34
2023-01-03T01:42:08.543Z,1019.33
2023-01-03T01:43:08.546Z,1019.32
2023-01-03T01:44:08.517Z,1019.34
2023-01-03T01:45:08.507Z,1019.40
2023-01-03T01:46:08.539Z,1019.40
2023-01-03T01:47:08.485Z,1019.41
2023-01-03T01:48:08.482Z,1019.39
2023-01-03T01:49:08.461Z,1019.40
2023-01-03T01:50:08.455Z,1019.45
2023-01-03T01:51:08.438Z,1019.42
2023-01-03T01:52:08.433Z,1019.50
2023-01-03T01:53:08.420Z,1019.40
2023-01-03T01:54:08.404Z,1019.56
2023-01-03T01:55:08.405Z,1019.57
2023-01-03T01:56:08.384Z,1019.61
2023-01-03T01:57:08.374Z,1019.66
2023-01-03T01:58:08.377Z,1019.66
2023-01-03T01:59:08.369Z,1019.68
2023-01-03T02:00:08.338Z,1019.67
2023-01-03T02:01:08.396Z,1019.64
2023-01-03T02:02:08.412Z,1019.69
2023-01-03T02:03:08.476Z,1019.64
2023-01-03T02:04:08.303Z,1019.65
2023-01-03T02:05:08.282Z,1019.60
2023-01-03T02:06:08.273Z,1019.62
2023-01-03T02:07:08.287Z,1019.64
2023-01-03T02:08:08.252Z,1019.66
2023-01-03T02:09:08.237Z,1019.57
2023-01-03T02:10:08.249Z,1019.66
2023-01-03T02:11:08.217Z,1019.65
2023-01-03T02:12:08.204Z,1019.63
2023-01-03T02:13:08.220Z,1019.61
2023-01-03T02:14:08.189Z,1019.67
2023-01-03T02:15:08.186Z,1019.67
2023-01-03T02:16:08.205Z,1019.72
2023-01-03T02:17:08.146Z,1019.67
2023-01-03T02:18:08.136Z,1019.69
2023-01-03T02:19:08.128Z,1019.73
2023-01-03T02:20:08.115Z,1019.73
2023-01-03T02:21:08.101Z,1019.78
2023-01-03T02:22:08.097Z,1019.81
2023-01-03T02:23:08.080Z,1019.79
2023-01-03T02:24:08.071Z,1019.85
2023-01-03T02:25:08.063Z,1019.88
2023-01-03T02:26:08.046Z,1019.89
2023-01-03T02:27:08.035Z,1019.91
2023-01-03T02:28:08.030Z,1019.89
2023-01-03T02:29:08.015Z,1019.93
2023-01-03T02:30:08.001Z,1019.96
2023-01-03T02:31:08.067Z,1019.95
2023-01-03T02:32:07.978Z,1020.03
2023-01-03T02:33:07.972Z,1020.01
2023-01-03T02:34:07.996Z,1020.03
2023-01-03T02:35:07.951Z,1020.03
2023-01-03T02:36:07.934Z,1020.05
2023-01-03T02:37:07.943Z,1020.06
2023-01-03T02:38:07.911Z,1020.10
2023-01-03T02:39:07.912Z,1020.07
2023-01-03T02:40:07.909Z,1020.13
2023-01-03T02:41:07.878Z,1020.07
2023-01-03T02:42:07.868Z,1020.14
2023-01-03T02:43:07.863Z,1020.13
2023-01-03T02:44:07.848Z,1020.16
2023-01-03T02:45:07.837Z,1020.14
2023-01-03T02:46:07.956Z,1020.21
2023-01-03T02:47:07.926Z,1020.18
2023-01-03T02:48:07.801Z,1020.22
2023-01-03T02:49:07.789Z,1020.20
2023-01-03T02:50:07.777Z,1020.21
2023-01-03T02:51:07.767Z,1020.25
2023-01-03T02:52:07.767Z,1020.24
2023-01-03T02:53:07.754Z,1020.21
2023-01-03T02:54:07.751Z,1020.24
2023-01-03T02:55:07.731Z,1020.18
2023-01-03T02:56:07.709Z,1020.20
2023-01-03T02:57:07.700Z,1020.22
2023-01-03T02:58:07.710Z,1020.21
2023-01-03T02:59:07.680Z,1020.19
2023-01-03T03:00:07.666Z,1020.24
2023-01-03T03:01:07.718Z,1020.23
2023-01-03T03:02:07.727Z,1020.27
2023-01-03T03:03:07.725Z,1020.28
2023-01-03T03:04:07.627Z,1020.29
2023-01-03T03:05:07.608Z,1020.34
2023-01-03T03:06:07.599Z,1020.36
2023-01-03T03:07:07.587Z,1020.38
2023-01-03T03:08:07.588Z,1020.43
2023-01-03T03:09:07.564Z,1020.41
2023-01-03T03:10:07.585Z,1020.41
2023-01-03T03:11:07.541Z,1020.44
2023-01-03T03:12:07.531Z,1020.39
2023-01-03T03:13:07.524Z,1020.43
2023-01-03T03:14:07.510Z,1020.38
2023-01-03T03:15:07.499Z,1020.40
2023-01-03T03:16:07.586Z,1020.39
2023-01-03T03:17:07.477Z,1020.44
2023-01-03T03:18:07.465Z,1020.38
2023-01-03T03:19:07.505Z,1020.41
2023-01-03T03:20:07.440Z,1020.45
2023-01-03T03:21:07.438Z,1020.46
2023-01-03T03:22:07.448Z,1020.49
2023-01-03T03:23:07.419Z,1020.49
2023-01-03T03:24:07.404Z,1020.51
2023-01-03T03:25:07.390Z,1020.50
2023-01-03T03:26:07.374Z,1020.54
2023-01-03T03:27:07.363Z,1020.53
2023-01-03T03:28:07.356Z,1020.53
2023-01-03T03:29:07.350Z,1020.49
2023-01-03T03:30:07.331Z,1020.52
2023-01-03T03:31:07.372Z,1020.57
2023-01-03T03:32:07.308Z,1020.57
2023-01-03T03:33:07.305Z,1020.62
2023-01-03T03:34:07.328Z,1020.64
2023-01-03T03:35:07.291Z,1020.70
2023-01-03T03:36:07.261Z,1020.72
2023-01-03T03:37:07.251Z,1020.70
2023-01-03T03:38:07.242Z,1020.73
2023-01-03T03:39:07.230Z,1020.67
2023-01-03T03:40:07.234Z,1020.69
2023-01-03T03:41:07.209Z,1020.72
2023-01-03T03:42:07.195Z,1020.73
2023-01-03T03:43:07.193Z,1020.70
2023-01-03T03:44:07.174Z,1020.68
2023-01-03T03:45:07.163Z,1020.71
2023-01-03T03:46:07.172Z,1020.72
2023-01-03T03:47:07.200Z,1020.78
2023-01-03T03:48:07.140Z,1020.80
2023-01-03T03:49:07.133Z,1020.79
2023-01-03T03:50:07.105Z,1020.75
2023-01-03T03:51:07.113Z,1020.73
2023-01-03T03:52:07.131Z,1020.73
2023-01-03T03:53:07.079Z,1020.74
2023-01-03T03:54:07.060Z,1020.76
2023-01-03T03:55:07.051Z,1020.77
2023-01-03T03:56:07.039Z,1020.79
2023-01-03T03:57:07.041Z,1020.78
2023-01-03T03:58:07.021Z,1020.80
2023-01-03T03:59:07.046Z,1020.81
2023-01-03T04:00:06.998Z,1020.81
2023-01-03T04:01:07.045Z,1020.84
2023-01-03T04:02:07.136Z,1020.85
2023-01-03T04:03:07.094Z,1020.87
2023-01-03T04:04:07.028Z,1020.87
2023-01-03T04:05:06.943Z,1020.90
2023-01-03T04:06:06.930Z,1020.96
2023-01-03T04:07:07.028Z,1020.99
2023-01-03T04:08:06.904Z,1020.98
2023-01-03T04:09:06.893Z,1021.05
2023-01-03T04:10:06.888Z,1021.02
2023-01-03T04:11:06.869Z,1021.05
2023-01-03T04:12:06.857Z,1021.09
2023-01-03T04:13:06.851Z,1021.09
2023-01-03T04:14:06.835Z,1021.10
2023-01-03T04:15:06.848Z,1021.08
2023-01-03T04:16:06.978Z,1021.12
2023-01-03T04:17:06.819Z,1021.08
2023-01-03T04:18:06.789Z,1021.15
2023-01-03T04:19:06.783Z,1021.13
2023-01-03T04:20:06.770Z,1021.13
2023-01-03T04:21:06.769Z,1021.12
2023-01-03T04:22:06.756Z,1021.16
2023-01-03T04:23:06.845Z,1021.16
2023-01-03T04:24:06.725Z,1021.15
2023-01-03T04:25:06.713Z,1021.17
2023-01-03T04:26:06.709Z,1021.21
2023-01-03T04:27:06.696Z,1021.20
2023-01-03T04:28:06.711Z,1021.20
2023-01-03T04:29:06.671Z,1021.18
2023-01-03T04:30:06.658Z,1021.27
2023-01-03T04:31:06.645Z,1021.29
2023-01-03T04:32:06.716Z,1021.28
2023-01-03T04:33:06.636Z,1021.31
2023-01-03T04:34:06.650Z,1021.33
2023-01-03T04:35:06.610Z,1021.39
2023-01-03T04:36:06.590Z,1021.38
2023-01-03T04:37:06.579Z,1021.40
2023-01-03T04:38:06.573Z,1021.41
2023-01-03T04:39:06.588Z,1021.42
2023-01-03T04:40:06.572Z,1021.41
2023-01-03T04:41:06.539Z,1021.42
2023-01-03T04:42:06.530Z,1021.42
2023-01-03T04:43:06.524Z,1021.47
2023-01-03T04:44:06.500Z,1021.43
2023-01-03T04:45:06.494Z,1021.49
2023-01-03T04:46:06.554Z,1021.52
2023-01-03T04:47:06.474Z,1021.43
2023-01-03T04:48:06.465Z,1021.53
2023-01-03T04:49:06.457Z,1021.49
2023-01-03T04:50:06.459Z,1021.54
2023-01-03T04:51:06.430Z,1021.52
2023-01-03T04:52:06.431Z,1021.51
2023-01-03T04:53:06.410Z,1021.53
2023-01-03T04:54:06.401Z,1021.58
2023-01-03T04:55:06.399Z,1021.55
2023-01-03T04:56:06.374Z,1021.57
2023-01-03T04:57:06.359Z,1021.55
2023-01-03T04:58:06.368Z,1021.56
2023-01-03T04:59:06.338Z,1021.57
2023-01-03T05:00:06.348Z,1021.58
2023-01-03T05:01:06.451Z,1021.57
2023-01-03T05:02:06.457Z,1021.64
2023-01-03T05:03:06.286Z,1021.63
2023-01-03T05:04:06.429Z,1021.63
2023-01-03T05:05:06.275Z,1021.65
2023-01-03T05:06:06.256Z,1021.63
2023-01-03T05:07:06.241Z,1021.65
2023-01-03T05:08:06.238Z,1021.67
2023-01-03T05:09:06.222Z,1021.73
2023-01-03T05:10:06.243Z,1021.72
2023-01-03T05:11:06.222Z,1021.73
2023-01-03T05:12:06.192Z,1021.76
2023-01-03T05:13:06.180Z,1021.76
2023-01-03T05:14:12.458Z,1021.76
2023-01-03T05:15:07.156Z,1021.75
2023-01-03T05:16:06.196Z,1021.74
2023-01-03T05:17:06.187Z,1021.77
2023-01-03T05:18:06.118Z,1021.78
2023-01-03T05:19:06.107Z,1021.77
2023-01-03T05:20:06.099Z,1021.78
2023-01-03T05:21:06.091Z,1021.78
2023-01-03T05:22:06.080Z,1021.82
2023-01-03T05:23:06.071Z,1021.89
2023-01-03T05:24:06.056Z,1021.87
2023-01-03T05:25:06.048Z,1021.84
2023-01-03T05:26:06.028Z,1021.87
2023-01-03T05:27:06.055Z,1021.85
2023-01-03T05:28:06.008Z,1021.85
2023-01-03T05:29:05.998Z,1021.86
2023-01-03T05:30:06.003Z,1021.87
2023-01-03T05:31:05.973Z,1021.87
2023-01-03T05:32:06.047Z,1021.91
2023-01-03T05:33:05.957Z,1021.89
2023-01-03T05:34:05.947Z,1021.90
2023-01-03T05:35:05.934Z,1021.92
2023-01-03T05:36:05.917Z,1021.91
2023-01-03T05:37:05.906Z,1021.92
2023-01-03T05:38:05.894Z,1021.94
2023-01-03T05:39:05.916Z,1021.94
2023-01-03T05:40:05.872Z,1021.91
2023-01-03T05:41:05.875Z,1021.90
2023-01-03T05:42:05.869Z,1021.94
2023-01-03T05:43:05.987Z,1021.88
2023-01-03T05:44:05.846Z,1021.88
2023-01-03T05:45:05.844Z,1021.91
2023-01-03T05:46:05.988Z,1021.97
2023-01-03T05:47:05.792Z,1021.96
2023-01-03T05:48:05.785Z,1021.95
2023-01-03T05:49:05.781Z,1021.96
2023-01-03T05:50:05.758Z,1021.99
2023-01-03T05:51:05.776Z,1022.01
2023-01-03T05:52:05.735Z,1022.02
2023-01-03T05:53:05.729Z,1022.03
2023-01-03T05:54:05.725Z,1022.04
2023-01-03T05:55:05.712Z,1022.04
2023-01-03T05:56:05.694Z,1022.06
2023-01-03T05:57:05.704Z,1022.05
2023-01-03T05:58:05.669Z,1022.05
2023-01-03T05:59:05.685Z,1022.08
2023-01-03T06:00:05.647Z,1022.11
2023-01-03T06:01:05.748Z,1022.09
2023-01-03T06:02:05.781Z,1022.07
2023-01-03T06:03:05.718Z,1022.09
2023-01-03T06:04:05.657Z,1022.11
2023-01-03T06:05:05.597Z,1022.14
2023-01-03T06:06:05.580Z,1022.16
2023-01-03T06:07:05.572Z,1022.29
2023-01-03T06:08:05.558Z,1022.25
2023-01-03T06:09:05.554Z,1022.25
2023-01-03T06:10:05.539Z,1022.40
2023-01-03T06:11:05.526Z,1022.29
2023-01-03T06:12:05.513Z,1022.30
2023-01-03T06:13:05.502Z,1022.31
2023-01-03T06:14:05.490Z,1022.31
2023-01-03T06:15:05.526Z,1022.32
2023-01-03T06:16:05.471Z,1022.32
2023-01-03T06:17:05.573Z,1022.29
2023-01-03T06:18:05.442Z,1022.28
2023-01-03T06:19:05.447Z,1022.31
2023-01-03T06:20:05.424Z,1022.29
2023-01-03T06:21:05.419Z,1022.31
2023-01-03T06:22:10.522Z,1022.32
2023-01-03T06:23:06.395Z,1022.32
2023-01-03T06:24:05.423Z,1022.31
2023-01-03T06:25:05.367Z,1022.35
2023-01-03T06:26:05.360Z,1022.32
2023-01-03T06:27:05.363Z,1022.31
2023-01-03T06:28:05.341Z,1022.34
2023-01-03T06:29:05.328Z,1022.34
2023-01-03T06:30:05.316Z,1022.37
2023-01-03T06:31:05.404Z,1022.35
2023-01-03T06:32:09.486Z,1022.41
2023-01-03T06:33:05.295Z,1022.45
2023-01-03T06:34:05.267Z,1022.45
2023-01-03T06:35:05.254Z,1022.50
2023-01-03T06:36:05.244Z,1022.50
2023-01-03T06:37:05.232Z,1022.56
2023-01-03T06:38:05.223Z,1022.49
2023-01-03T06:39:05.227Z,1022.53
2023-01-03T06:40:05.197Z,1022.54
2023-01-03T06:41:05.190Z,1022.59
2023-01-03T06:42:05.178Z,1022.59
2023-01-03T06:43:05.169Z,1022.65
2023-01-03T06:44:05.153Z,1022.63
2023-01-03T06:45:05.194Z,1022.63
2023-01-03T06:46:05.190Z,1022.64
2023-01-03T06:47:05.134Z,1022.69
2023-01-03T06:48:05.109Z,1022.62
2023-01-03T06:49:05.096Z,1022.66
2023-01-03T06:50:05.090Z,1022.64
2023-01-03T06:51:05.081Z,1022.67
2023-01-03T06:52:05.070Z,1022.66
2023-01-03T06:53:05.064Z,1022.71
2023-01-03T06:54:05.051Z,1022.68
2023-01-03T06:55:05.042Z,1022.67
2023-01-03T06:56:05.018Z,1022.67
2023-01-03T06:57:05.025Z,1022.71
2023-01-03T06:58:05.002Z,1022.79
2023-01-03T06:59:04.988Z,1022.72
2023-01-03T07:00:04.973Z,1022.80
2023-01-03T07:01:05.072Z,1022.76
2023-01-03T07:02:05.091Z,1022.79
2023-01-03T07:03:10.955Z,1022.78
2023-01-03T07:04:06.003Z,1022.81
2023-01-03T07:05:05.056Z,1022.82
2023-01-03T07:06:04.906Z,1022.84
2023-01-03T07:07:04.899Z,1022.88
2023-01-03T07:08:04.883Z,1022.88
2023-01-03T07:09:04.884Z,1022.86
2023-01-03T07:10:04.862Z,1022.88
2023-01-03T07:11:04.850Z,1022.89
2023-01-03T07:12:04.843Z,1022.87
2023-01-03T07:13:04.829Z,1022.90
2023-01-03T07:14:04.818Z,1022.89
2023-01-03T07:15:04.813Z,1022.89
2023-01-03T07:16:04.834Z,1022.93
2023-01-03T07:17:04.788Z,1022.95
2023-01-03T07:18:04.776Z,1022.94
2023-01-03T07:19:04.785Z,1022.92
2023-01-03T07:20:04.753Z,1022.99
2023-01-03T07:21:04.745Z,1022.94
2023-01-03T07:22:04.729Z,1022.96
2023-01-03T07:23:04.716Z,1023.05
2023-01-03T07:24:04.711Z,1023.03
2023-01-03T07:25:04.694Z,1022.99
2023-01-03T07:26:04.692Z,1022.97
2023-01-03T07:27:04.688Z,1023.00
2023-01-03T07:28:08.121Z,1023.03
2023-01-03T07:29:04.652Z,1023.08
2023-01-03T07:30:04.640Z,1023.07
2023-01-03T07:31:04.694Z,1023.10
2023-01-03T07:32:04.614Z,1023.09
2023-01-03T07:33:04.630Z,1023.05
2023-01-03T07:34:04.627Z,1023.12
2023-01-03T07:35:04.597Z,1023.08
2023-01-03T07:36:11.013Z,1023.13
2023-01-03T07:37:05.566Z,1023.11
2023-01-03T07:38:04.547Z,1023.09
2023-01-03T07:39:04.562Z,1023.12
2023-01-03T07:40:04.526Z,1023.12
2023-01-03T07:41:04.540Z,1023.17
2023-01-03T07:42:04.503Z,1023.15
2023-01-03T07:43:04.493Z,1023.16
2023-01-03T07:44:04.481Z,1023.18
2023-01-03T07:45:04.475Z,1023.24
2023-01-03T07:46:04.492Z,1023.18
2023-01-03T07:47:04.448Z,1023.22
2023-01-03T07:48:04.439Z,1023.20
2023-01-03T07:49:09.635Z,1023.20
2023-01-03T07:50:05.446Z,1023.19
2023-01-03T07:51:04.418Z,1023.32
2023-01-03T07:52:04.396Z,1023.28
2023-01-03T07:53:04.378Z,1023.25
2023-01-03T07:54:04.382Z,1023.35
2023-01-03T07:55:04.361Z,1023.28
2023-01-03T07:56:09.150Z,1023.29
2023-01-03T07:57:05.341Z,1023.26
2023-01-03T07:58:04.342Z,1023.27
2023-01-03T07:59:04.317Z,1023.32
2023-01-03T08:00:04.317Z,1023.29
2023-01-03T08:01:04.299Z,1023.32
2023-01-03T08:02:04.388Z,1023.36
2023-01-03T08:03:07.730Z,1023.32
2023-01-03T08:04:05.261Z,1023.32
2023-01-03T08:05:04.305Z,1023.32
2023-01-03T08:06:04.263Z,1023.37
2023-01-03T08:07:04.241Z,1023.31
2023-01-03T08:08:04.233Z,1023.34
2023-01-03T08:09:06.285Z,1023.38
2023-01-03T08:10:04.191Z,1023.35
2023-01-03T08:11:04.209Z,1023.37
2023-01-03T08:12:04.171Z,1023.38
2023-01-03T08:13:04.170Z,1023.41
2023-01-03T08:14:04.164Z,1023.43
2023-01-03T08:15:04.146Z,1023.40
2023-01-03T08:16:04.223Z,1023.47
2023-01-03T08:17:04.111Z,1023.49
2023-01-03T08:18:04.111Z,1023.53
2023-01-03T08:19:04.105Z,1023.65
2023-01-03T08:20:04.084Z,1023.58
2023-01-03T08:21:04.065Z,1023.56
2023-01-03T08:22:04.056Z,1023.62
2023-01-03T08:23:04.073Z,1023.63
2023-01-03T08:24:04.031Z,1023.62
2023-01-03T08:25:04.030Z,1023.60
2023-01-03T08:26:04.015Z,1023.69
2023-01-03T08:27:04.017Z,1023.62
2023-01-03T08:28:03.993Z,1023.67
2023-01-03T08:29:03.977Z,1023.67
2023-01-03T08:30:03.968Z,1023.69
2023-01-03T08:31:04.174Z,1023.68
2023-01-03T08:32:03.947Z,1023.70
2023-01-03T08:33:03.940Z,1023.73
2023-01-03T08:34:06.486Z,1023.77
2023-01-03T08:35:04.913Z,1023.69
2023-01-03T08:36:03.919Z,1023.74
2023-01-03T08:37:03.887Z,1023.73
2023-01-03T08:38:03.895Z,1023.73
2023-01-03T08:39:03.884Z,1023.79
2023-01-03T08:40:03.853Z,1023.74
2023-01-03T08:41:03.840Z,1023.81
2023-01-03T08:42:03.828Z,1023.77
2023-01-03T08:43:03.829Z,1023.81
2023-01-03T08:44:03.818Z,1023.76
2023-01-03T08:45:03.807Z,1023.84
2023-01-03T08:46:03.789Z,1023.79
2023-01-03T08:47:03.915Z,1023.76
2023-01-03T08:48:03.794Z,1023.82
2023-01-03T08:49:03.751Z,1023.81
2023-01-03T08:50:03.785Z,1023.82
2023-01-03T08:51:03.728Z,1023.78
2023-01-03T08:52:03.725Z,1023.80
2023-01-03T08:53:03.714Z,1023.82
2023-01-03T08:54:03.703Z,1023.76
2023-01-03T08:55:03.701Z,1023.75
2023-01-03T08:56:03.695Z,1023.81
2023-01-03T08:57:03.677Z,1023.81
2023-01-03T08:58:03.651Z,1023.79
2023-01-03T08:59:03.643Z,1023.85
2023-01-03T09:00:03.627Z,1023.88
2023-01-03T09:01:03.618Z,1023.92
2023-01-03T09:02:03.932Z,1023.90
2023-01-03T09:03:03.779Z,1023.90
2023-01-03T09:04:03.607Z,1023.90
2023-01-03T09:05:03.574Z,1023.89
2023-01-03T09:06:03.570Z,1023.94
2023-01-03T09:07:03.555Z,1023.96
2023-01-03T09:08:03.556Z,1023.95
2023-01-03T09:09:03.534Z,1024.05
2023-01-03T09:10:03.518Z,1024.01
2023-01-03T09:11:03.521Z,1024.08
2023-01-03T09:12:03.496Z,1024.11
2023-01-03T09:13:03.481Z,1024.04
2023-01-03T09:14:03.478Z,1024.09
2023-01-03T09:15:03.459Z,1024.08
2023-01-03T09:16:03.533Z,1024.08
2023-01-03T09:17:03.442Z,1024.12
2023-01-03T09:18:03.424Z,1024.13
2023-01-03T09:19:03.414Z,1024.16
2023-01-03T09:20:03.434Z,1024.16
2023-01-03T09:21:03.390Z,1024.20
2023-01-03T09:22:03.396Z,1024.17
2023-01-03T09:23:03.370Z,1024.20
2023-01-03T09:24:03.359Z,1024.23
2023-01-03T09:25:03.357Z,1024.21
2023-01-03T09:26:03.355Z,1024.21
2023-01-03T09:27:03.343Z,1024.22
2023-01-03T09:28:03.313Z,1024.27
2023-01-03T09:29:03.302Z,1024.23
2023-01-03T09:30:03.301Z,1024.29
2023-01-03T09:31:03.345Z,1024.25
2023-01-03T09:32:03.500Z,1024.24
2023-01-03T09:33:03.280Z,1024.25
2023-01-03T09:34:03.251Z,1024.29
2023-01-03T09:35:03.240Z,1024.23
2023-01-03T09:36:03.247Z,1024.20
2023-01-03T09:37:03.219Z,1024.24
2023-01-03T09:38:03.206Z,1024.25
2023-01-03T09:39:03.189Z,1024.19
2023-01-03T09:40:03.177Z,1024.22
2023-01-03T09:41:03.175Z,1024.22
2023-01-03T09:42:03.157Z,1024.26
2023-01-03T09:43:03.167Z,1024.24
2023-01-03T09:44:03.151Z,1024.18
2023-01-03T09:45:03.129Z,1024.18
2023-01-03T09:46:03.129Z,1024.23
2023-01-03T09:47:03.181Z,1024.22
2023-01-03T09:48:03.097Z,1024.28
2023-01-03T09:49:03.077Z,1024.23
2023-01-03T09:51:25.877Z,1024.22
2023-01-03T09:52:04.053Z,1024.24
2023-01-03T09:53:03.040Z,1024.26
2023-01-03T09:54:03.021Z,1024.24
2023-01-03T09:55:03.009Z,1024.22
2023-01-03T09:56:03.010Z,1024.26
2023-01-03T09:57:02.997Z,1024.28
2023-01-03T09:58:02.983Z,1024.27
2023-01-03T09:59:02.982Z,1024.29
2023-01-03T10:00:02.979Z,1024.27
2023-01-03T10:01:02.994Z,1024.27
2023-01-03T10:02:03.148Z,1024.26
2023-01-03T10:03:03.036Z,1024.28
2023-01-03T10:04:02.916Z,1024.23
2023-01-03T10:05:02.900Z,1024.26
2023-01-03T10:06:02.901Z,1024.26
2023-01-03T10:07:02.878Z,1024.20
2023-01-03T10:08:02.886Z,1024.23
2023-01-03T10:09:02.872Z,1024.17
2023-01-03T10:10:02.842Z,1024.21
2023-01-03T10:11:02.830Z,1024.20
2023-01-03T10:12:02.818Z,1024.25
2023-01-03T10:13:02.822Z,1024.20
2023-01-03T10:14:02.806Z,1024.14
2023-01-03T10:15:02.804Z,1024.11
2023-01-03T10:16:02.826Z,1024.13
2023-01-03T10:17:02.900Z,1024.14
2023-01-03T10:18:02.756Z,1024.15
2023-01-03T10:19:02.740Z,1024.10
2023-01-03T10:20:02.735Z,1024.12
2023-01-03T10:21:02.718Z,1024.13
2023-01-03T10:22:02.710Z,1024.12
2023-01-03T10:23:02.695Z,1024.08
2023-01-03T10:24:02.693Z,1024.12
2023-01-03T10:25:02.672Z,1024.09
2023-01-03T10:26:02.671Z,1024.07
2023-01-03T10:27:02.650Z,1024.05
2023-01-03T10:28:02.641Z,1024.00
2023-01-03T10:29:02.633Z,1024.08
2023-01-03T10:30:02.628Z,1024.07
2023-01-03T10:31:07.630Z,1023.99
2023-01-03T10:32:03.739Z,1024.03
2023-01-03T10:33:02.587Z,1024.03
2023-01-03T10:34:02.573Z,1024.08
2023-01-03T10:35:02.562Z,1024.09
2023-01-03T10:36:02.558Z,1024.18
2023-01-03T10:37:02.545Z,1024.15
2023-01-03T10:38:02.544Z,1024.13
2023-01-03T10:39:02.519Z,1024.18
2023-01-03T10:40:02.510Z,1024.10
2023-01-03T10:41:02.527Z,1024.12
2023-01-03T10:42:02.481Z,1024.17
2023-01-03T10:43:02.474Z,1024.21
2023-01-03T10:44:02.487Z,1024.15
2023-01-03T10:45:02.451Z,1024.17
2023-01-03T10:46:02.467Z,1024.17
2023-01-03T10:47:02.440Z,1024.17
2023-01-03T10:48:02.416Z,1024.13
2023-01-03T10:49:31.385Z,1024.12
2023-01-03T10:50:03.397Z,1024.13
2023-01-03T10:51:02.381Z,1024.11
2023-01-03T10:52:02.367Z,1024.16
2023-01-03T10:53:02.358Z,1024.11
2023-01-03T10:54:02.345Z,1024.12
2023-01-03T10:55:02.337Z,1024.19
2023-01-03T10:56:02.333Z,1024.18
2023-01-03T10:57:02.311Z,1024.13
2023-01-03T10:58:02.305Z,1024.11
2023-01-03T10:59:02.297Z,1024.16
2023-01-03T11:00:02.277Z,1024.17
2023-01-03T11:01:02.314Z,1024.22
2023-01-03T11:02:02.625Z,1024.23
2023-01-03T11:03:02.433Z,1024.21
2023-01-03T11:04:02.317Z,1024.20
2023-01-03T11:05:02.222Z,1024.24
2023-01-03T11:06:02.234Z,1024.22
2023-01-03T11:07:02.207Z,1024.21
2023-01-03T11:08:02.201Z,1024.24
2023-01-03T11:09:02.197Z,1024.19
2023-01-03T11:10:02.167Z,1024.18
2023-01-03T11:11:02.162Z,1024.11
2023-01-03T11:12:02.144Z,1024.16
2023-01-03T11:13:02.133Z,1024.16
2023-01-03T11:14:02.130Z,1024.14
2023-01-03T11:15:02.115Z,1024.11
2023-01-03T11:16:02.098Z,1024.11
2023-01-03T11:17:02.185Z,1024.08
2023-01-03T11:18:02.085Z,1024.08
2023-01-03T11:19:02.109Z,1024.11
2023-01-03T11:20:02.057Z,1024.10
2023-01-03T11:21:02.045Z,1024.02
2023-01-03T11:22:02.035Z,1024.07
2023-01-03T11:23:02.021Z,1024.04
2023-01-03T11:24:02.016Z,1024.04
2023-01-03T11:25:02.019Z,1024.06
2023-01-03T11:26:01.994Z,1024.05
2023-01-03T11:27:01.976Z,1024.06
2023-01-03T11:28:01.980Z,1024.05
2023-01-03T11:29:01.952Z,1024.08
2023-01-03T11:30:01.993Z,1024.06
2023-01-03T11:31:01.932Z,1024.06
2023-01-03T11:32:02.013Z,1024.08
2023-01-03T11:33:01.910Z,1024.11
2023-01-03T11:34:01.898Z,1024.12
2023-01-03T11:36:02.876Z,1024.12
2023-01-03T11:37:01.866Z,1024.11
2023-01-03T11:38:01.861Z,1024.08
2023-01-03T11:39:01.840Z,1023.98
2023-01-03T11:40:01.830Z,1023.98
2023-01-03T11:41:01.817Z,1024.00
2023-01-03T11:42:01.813Z,1023.97
2023-01-03T11:43:01.798Z,1024.03
2023-01-03T11:44:01.790Z,1024.05
2023-01-03T11:45:01.776Z,1024.05
2023-01-03T11:46:01.837Z,1024.00
2023-01-03T11:47:01.756Z,1024.05
2023-01-03T11:48:01.739Z,1024.02
2023-01-03T11:49:01.743Z,1024.04
2023-01-03T11:50:01.755Z,1024.01
2023-01-03T11:51:01.724Z,1024.05
2023-01-03T11:52:01.696Z,1024.01
2023-01-03T11:53:01.753Z,1023.97
2023-01-03T11:54:01.687Z,1023.91
2023-01-03T11:55:01.659Z,1024.00
2023-01-03T11:56:01.659Z,1023.98
2023-01-03T11:57:01.640Z,1023.98
2023-01-03T11:58:01.632Z,1023.98
2023-01-03T11:59:01.638Z,1024.02
2023-01-03T12:00:01.614Z,1024.02
2023-01-03T12:01:01.609Z,1024.02
2023-01-03T12:02:01.718Z,1024.00
2023-01-03T12:03:01.746Z,1024.07
2023-01-03T12:04:01.651Z,1024.04
2023-01-03T12:05:01.560Z,1024.07
2023-01-03T12:06:01.538Z,1024.04
2023-01-03T12:07:21.885Z,1024.00